createdAt,value
2023-04-26T00:00:50.880Z,6.70
2023-04-26T00:06:14.987Z,7.30
2023-04-26T00:11:21.376Z,6.70
2023-04-26T00:17:00.112Z,7.00
2023-04-26T00:22:03.448Z,6.20
2023-04-26T00:27:40.348Z,6.40
2023-04-26T00:32:49.223Z,6.40
2023-04-26T00:37:52.599Z,6.20
2023-04-26T00:43:21.638Z,5.50
2023-04-26T00:48:31.296Z,5.20
2023-04-26T00:53:45.161Z,4.80
2023-04-26T00:59:10.735Z,4.90
2023-04-26T01:04:19.377Z,5.30
2023-04-26T01:09:38.529Z,5.00
2023-04-26T01:15:22.956Z,4.90
2023-04-26T01:20:53.096Z,4.80
2023-04-26T01:31:05.641Z,4.70
2023-04-26T01:36:12.258Z,4.50
2023-04-26T01:41:16.063Z,5.00
2023-04-26T01:46:22.718Z,4.60
2023-04-26T01:51:27.296Z,4.60
2023-04-26T01:57:03.313Z,4.60
2023-04-26T02:02:12.906Z,4.80
2023-04-26T02:07:27.664Z,5.30
2023-04-26T02:12:33.744Z,5.10
2023-04-26T02:18:12.873Z,5.30
2023-04-26T02:23:24.656Z,5.60
2023-04-26T02:28:46.142Z,6.00
2023-04-26T02:34:07.442Z,5.30
2023-04-26T02:39:33.917Z,5.40
2023-04-26T02:44:40.012Z,5.70
2023-04-26T02:49:52.752Z,5.70
2023-04-26T02:55:04.677Z,6.30
2023-04-26T03:00:15.916Z,5.80
2023-04-26T03:05:20.229Z,6.50
2023-04-26T03:11:03.610Z,6.90
2023-04-26T03:17:07.743Z,7.70
2023-04-26T03:23:21.700Z,7.70
2023-04-26T03:28:59.922Z,8.30
2023-04-26T03:34:18.865Z,8.60
2023-04-26T03:39:45.022Z,8.20
2023-04-26T03:45:32.962Z,8.70
2023-04-26T03:51:06.520Z,8.40
2023-04-26T03:56:10.353Z,8.10
2023-04-26T04:01:29.238Z,8.50
2023-04-26T04:06:36.659Z,9.20
2023-04-26T04:11:43.039Z,8.40
2023-04-26T04:16:46.736Z,8.20
2023-04-26T04:21:50.178Z,10.00
2023-04-26T04:26:56.256Z,9.00
2023-04-26T04:32:05.400Z,8.80
2023-04-26T04:37:50.900Z,8.60
2023-04-26T04:48:09.314Z,8.40
2023-04-26T04:53:16.388Z,7.70
2023-04-26T04:58:43.108Z,8.40
2023-04-26T05:04:00.241Z,8.20
2023-04-26T05:09:13.796Z,7.60
2023-04-26T05:14:17.546Z,7.40
2023-04-26T05:19:21.130Z,7.70
2023-04-26T05:24:24.687Z,7.60
2023-04-26T05:29:31.584Z,6.60
2023-04-26T05:34:52.139Z,6.70
2023-04-26T05:39:55.399Z,6.10
2023-04-26T05:45:04.536Z,6.00
2023-04-26T05:50:30.033Z,6.10
2023-04-26T05:55:40.296Z,5.30
2023-04-26T06:01:04.076Z,5.50
2023-04-26T06:06:11.116Z,5.30
2023-04-26T06:11:15.524Z,5.20
2023-04-26T06:16:24.706Z,4.80
2023-04-26T06:21:41.421Z,5.10
2023-04-26T06:26:45.289Z,4.20
2023-04-26T06:32:29.060Z,5.00
2023-04-26T06:38:13.079Z,4.60
2023-04-26T06:43:19.743Z,4.30
2023-04-26T06:49:28.178Z,4.20
2023-04-26T06:55:33.375Z,4.00
2023-04-26T07:06:06.670Z,4.10
2023-04-26T07:11:28.077Z,3.90
2023-04-26T07:16:34.444Z,3.60
2023-04-26T07:22:00.829Z,3.30
2023-04-26T07:27:07.565Z,3.50
2023-04-26T07:32:44.114Z,3.90
2023-04-26T07:37:49.848Z,3.50
2023-04-26T07:44:04.909Z,4.30
2023-04-26T07:49:18.741Z,4.20
2023-04-26T07:54:40.229Z,3.90
2023-04-26T08:00:46.548Z,3.90
2023-04-26T08:05:50.373Z,4.10
2023-04-26T08:10:56.980Z,3.30
2023-04-26T08:16:42.280Z,3.60
2023-04-26T08:21:54.214Z,3.30
2023-04-26T08:27:11.692Z,3.80
2023-04-26T08:32:35.566Z,3.40
2023-04-26T08:38:02.280Z,3.10
2023-04-26T08:43:17.493Z,3.00
2023-04-26T08:48:54.103Z,3.10
2023-04-26T08:54:05.069Z,3.00
2023-04-26T08:59:31.352Z,2.60
2023-04-26T09:04:50.949Z,2.10
2023-04-26T09:10:28.343Z,2.20
2023-04-26T09:15:34.976Z,2.30
2023-04-26T09:21:10.626Z,2.40
2023-04-26T09:26:19.200Z,2.20
2023-04-26T09:31:48.644Z,2.30
2023-04-26T09:37:23.885Z,2.30
2023-04-26T09:48:17.749Z,2.30
2023-04-26T09:53:51.108Z,2.20
2023-04-26T09:58:59.234Z,2.10
2023-04-26T10:04:04.460Z,2.10
2023-04-26T10:09:16.076Z,1.90
2023-04-26T10:14:40.007Z,1.90
2023-04-26T10:19:44.857Z,2.20
2023-04-26T10:24:52.594Z,2.20
2023-04-26T10:29:56.620Z,1.60
2023-04-26T10:35:32.532Z,2.10
2023-04-26T10:40:40.600Z,2.20
2023-04-26T10:45:48.470Z,2.40
2023-04-26T10:51:48.529Z,2.00
2023-04-26T10:57:14.384Z,2.10
2023-04-26T11:02:37.949Z,1.90
2023-04-26T11:08:35.444Z,2.40
2023-04-26T11:14:02.091Z,2.10
2023-04-26T11:19:14.767Z,2.40
2023-04-26T11:25:18.071Z,2.60
2023-04-26T11:30:27.026Z,2.60
2023-04-26T11:35:41.806Z,2.30
2023-04-26T11:41:19.831Z,2.80
2023-04-26T11:47:04.728Z,2.40
2023-04-26T11:53:18.971Z,2.00
2023-04-26T11:58:47.897Z,2.20
2023-04-26T12:03:56.169Z,2.40
2023-04-26T12:09:53.046Z,2.70
2023-04-26T12:15:19.671Z,2.50
2023-04-26T12:20:49.638Z,2.20
2023-04-26T12:26:44.975Z,2.40
2023-04-26T12:31:51.116Z,2.20
2023-04-26T12:37:37.272Z,2.00
2023-04-26T12:42:56.843Z,2.40
2023-04-26T12:48:08.126Z,2.50
2023-04-26T12:53:37.024Z,2.50
2023-04-26T12:59:03.646Z,2.30
2023-04-26T13:04:13.184Z,2.30
2023-04-26T13:09:22.225Z,2.10
2023-04-26T13:14:47.298Z,2.30
2023-04-26T13:20:11.740Z,2.40
2023-04-26T13:25:19.461Z,2.10
2023-04-26T13:30:30.524Z,2.30
2023-04-26T13:35:36.967Z,2.20
2023-04-26T13:40:40.691Z,2.10
2023-04-26T13:45:47.513Z,1.90
2023-04-26T13:52:05.601Z,2.30
2023-04-26T13:57:09.135Z,2.00
2023-04-26T14:02:35.673Z,2.30
2023-04-26T14:07:41.613Z,2.30
2023-04-26T14:12:45.206Z,2.60
2023-04-26T14:18:31.630Z,1.90
2023-04-26T14:23:34.985Z,2.20
2023-04-26T14:28:38.883Z,2.40
2023-04-26T14:33:44.889Z,2.60
2023-04-26T14:39:08.866Z,2.60
2023-04-26T14:44:51.003Z,2.60
2023-04-26T14:49:54.634Z,2.80
2023-04-26T14:55:41.944Z,2.50
2023-04-26T15:01:11.379Z,2.70
2023-04-26T15:06:18.143Z,2.80
2023-04-26T15:12:24.868Z,2.80
2023-04-26T15:17:47.123Z,2.90
2023-04-26T15:23:17.159Z,3.10
2023-04-26T15:28:32.072Z,3.00
2023-04-26T15:34:31.595Z,2.60
2023-04-26T15:40:31.856Z,3.20
2023-04-26T15:46:04.964Z,3.40
2023-04-26T15:51:11.101Z,3.20
2023-04-26T15:56:28.708Z,3.00
2023-04-26T16:01:32.323Z,3.10
2023-04-26T16:06:38.378Z,3.40
2023-04-26T16:12:06.067Z,3.40
2023-04-26T16:17:12.568Z,3.80
2023-04-26T16:22:45.058Z,3.60
2023-04-26T16:28:11.333Z,3.50
2023-04-26T16:33:35.584Z,4.10
2023-04-26T16:38:39.165Z,3.70
2023-04-26T16:43:53.195Z,3.70
2023-04-26T16:48:59.767Z,3.30
2023-04-26T16:54:05.741Z,3.40
2023-04-26T17:00:09.632Z,3.60
2023-04-26T17:05:37.980Z,3.40
2023-04-26T17:10:42.422Z,3.50
2023-04-26T17:16:00.238Z,3.70
2023-04-26T17:22:00.304Z,7.70
2023-04-26T17:27:08.355Z,4.10
2023-04-26T17:32:29.582Z,4.30
2023-04-26T17:38:14.220Z,4.70
2023-04-26T17:48:55.573Z,5.00
2023-04-26T17:54:08.604Z,4.60
2023-04-26T17:59:47.934Z,4.30
2023-04-26T18:05:25.287Z,4.20
2023-04-26T18:11:40.298Z,3.90
2023-04-26T18:17:30.134Z,3.80
2023-04-26T18:23:47.233Z,4.40
2023-04-26T18:29:20.348Z,4.40
2023-04-26T19:04:23.559Z,4.90
2023-04-26T19:10:07.200Z,5.40
2023-04-26T19:15:25.204Z,6.20
2023-04-26T19:20:52.451Z,6.00
2023-04-26T19:26:06.716Z,6.60
2023-04-26T19:31:29.907Z,6.40
2023-04-26T19:36:36.719Z,5.90
2023-04-26T19:41:45.420Z,5.80
2023-04-26T19:47:13.887Z,5.70
2023-04-26T19:52:45.520Z,6.40
2023-04-26T19:58:21.332Z,7.50
2023-04-26T20:03:41.561Z,7.70
2023-04-26T20:09:02.453Z,8.20
2023-04-26T20:14:44.427Z,8.30
2023-04-26T20:20:33.962Z,7.80
2023-04-26T20:25:59.244Z,8.60
2023-04-26T20:31:46.968Z,8.20
2023-04-26T20:37:10.480Z,8.90
2023-04-26T20:42:23.666Z,8.50
2023-04-26T20:47:37.770Z,9.10
2023-04-26T20:52:47.294Z,9.00
2023-04-26T20:58:04.442Z,8.70
2023-04-26T21:03:17.213Z,8.30
2023-04-26T21:08:24.244Z,7.60
2023-04-26T21:13:48.192Z,7.70
2023-04-26T21:18:57.119Z,7.60
2023-04-26T21:24:30.004Z,8.10
2023-04-26T21:29:33.805Z,7.90
2023-04-26T21:34:45.653Z,8.20
2023-04-26T21:40:12.459Z,8.00
2023-04-26T21:52:03.056Z,7.50
2023-04-26T21:57:40.942Z,8.00
2023-04-26T22:03:38.159Z,8.30
2023-04-26T22:09:49.706Z,9.00
2023-04-26T22:16:14.749Z,9.20
2023-04-26T22:22:03.325Z,9.10
2023-04-26T22:27:06.793Z,8.70
2023-04-26T22:32:30.513Z,9.20
2023-04-26T22:37:33.739Z,9.40
2023-04-26T22:42:49.970Z,9.40
2023-04-26T22:47:53.137Z,9.90
2023-04-26T22:52:56.607Z,12.60
2023-04-26T22:57:59.886Z,14.40
2023-04-26T23:03:03.290Z,16.30
2023-04-26T23:08:06.674Z,19.00
2023-04-26T23:13:09.917Z,18.80
2023-04-26T23:18:13.967Z,17.80
2023-04-26T23:23:17.148Z,18.10
2023-04-26T23:28:23.310Z,18.70
2023-04-26T23:33:35.555Z,16.60
2023-04-26T23:38:44.560Z,14.40
2023-04-26T23:43:48.116Z,13.10
2023-04-26T23:48:51.447Z,14.90
2023-04-26T23:53:54.672Z,12.00
2023-04-26T23:58:58.453Z,12.40
